Time;durP1;ratioP1;P1;durP2;ratioP2;P2;SDS_P1;SDS_P2;PMS_P1;PMS_P2;Temp;Humidity;BMP_temperature;BMP_pressure;BME280_temperature;BME280_humidity;BME280_pressure;Samples;Min_cycle;Max_cycle;Signal;HPM_P1;HPM_P2
2024/03/03 00:00:49;;;;;;;18.02;8.73;;;;;;;;;;5069601;28;20076;-61
2024/03/03 00:03:18;;;;;;;18.70;8.05;;;;;;;;;;5070731;28;20048;-58
2024/03/03 00:05:48;;;;;;;16.10;7.95;;;;;;;;;;5060954;28;20402;-59
2024/03/03 00:08:15;;;;;;;16.98;8.25;;;;;;;;;;5069659;28;20053;-60
2024/03/03 00:10:44;;;;;;;17.70;8.48;;;;;;;;;;5067196;28;20044;-58
2024/03/03 00:13:12;;;;;;;17.00;7.90;;;;;;;;;;5070643;28;20557;-58
2024/03/03 00:15:41;;;;;;;16.27;8.05;;;;;;;;;;5068898;28;20048;-58
2024/03/03 00:18:09;;;;;;;18.42;8.93;;;;;;;;;;5070000;28;20135;-61
2024/03/03 00:20:38;;;;;;;18.60;8.23;;;;;;;;;;5067602;28;20123;-59
2024/03/03 00:23:08;;;;;;;19.15;8.20;;;;;;;;;;5069826;28;20406;-62
2024/03/03 00:25:36;;;;;;;17.60;8.13;;;;;;;;;;5060943;28;20049;-58
2024/03/03 00:28:04;;;;;;;16.30;8.32;;;;;;;;;;5059957;28;20064;-58
2024/03/03 00:30:33;;;;;;;16.77;8.75;;;;;;;;;;5061625;28;20455;-61
2024/03/03 00:33:01;;;;;;;15.07;7.53;;;;;;;;;;5069335;28;20048;-59
2024/03/03 00:35:30;;;;;;;16.83;8.15;;;;;;;;;;5068989;28;20060;-61
2024/03/03 00:37:58;;;;;;;20.92;9.32;;;;;;;;;;5058463;28;20453;-58
2024/03/03 00:40:28;;;;;;;17.85;9.35;;;;;;;;;;5061389;28;20525;-58
2024/03/03 00:42:56;;;;;;;18.20;8.70;;;;;;;;;;5075206;28;20048;-60
2024/03/03 00:45:25;;;;;;;19.40;8.60;;;;;;;;;;5069355;28;20072;-59
2024/03/03 00:47:53;;;;;;;17.55;8.57;;;;;;;;;;5070699;28;20513;-61
2024/03/03 00:50:21;;;;;;;18.35;9.35;;;;;;;;;;5069402;28;20041;-58
2024/03/03 00:52:54;;;;;;;18.63;8.60;;;;;;;;;;5078172;28;20138;-59
2024/03/03 00:55:22;;;;;;;19.10;8.13;;;;;;;;;;5064873;28;20102;-60
2024/03/03 00:57:52;;;;;;;19.75;9.32;;;;;;;;;;5076026;28;20052;-58
2024/03/03 01:00:21;;;;;;;17.95;8.63;;;;;;;;;;5069305;28;20062;-67
2024/03/03 01:02:49;;;;;;;16.90;8.77;;;;;;;;;;5070333;28;20056;-60
2024/03/03 01:05:17;;;;;;;17.20;8.75;;;;;;;;;;5068340;28;20106;-58
2024/03/03 01:07:46;;;;;;;19.80;9.40;;;;;;;;;;5075578;28;20041;-59
2024/03/03 01:10:15;;;;;;;17.25;7.93;;;;;;;;;;5067305;28;20463;-58
2024/03/03 01:12:44;;;;;;;18.08;9.50;;;;;;;;;;5071221;28;20537;-59
2024/03/03 01:15:14;;;;;;;17.70;8.48;;;;;;;;;;5071509;28;20381;-58
2024/03/03 01:17:42;;;;;;;22.77;9.63;;;;;;;;;;5070755;28;20040;-57
2024/03/03 01:20:11;;;;;;;16.58;9.00;;;;;;;;;;5064396;28;20044;-60
2024/03/03 01:22:39;;;;;;;14.05;7.75;;;;;;;;;;5072978;28;20048;-60
2024/03/03 01:25:08;;;;;;;13.15;7.68;;;;;;;;;;5072612;28;20052;-61
2024/03/03 01:27:37;;;;;;;20.25;9.30;;;;;;;;;;5074469;28;20546;-62
2024/03/03 01:30:06;;;;;;;19.38;8.93;;;;;;;;;;5070948;28;20045;-59
2024/03/03 01:32:36;;;;;;;19.88;8.38;;;;;;;;;;5071722;28;20083;-62
2024/03/03 01:35:04;;;;;;;18.52;8.68;;;;;;;;;;5069565;28;20094;-58
2024/03/03 01:37:33;;;;;;;14.35;8.38;;;;;;;;;;5069701;28;20405;-62
2024/03/03 01:40:01;;;;;;;16.75;7.65;;;;;;;;;;5063220;28;20149;-58
2024/03/03 01:42:29;;;;;;;18.30;8.63;;;;;;;;;;5087945;28;20130;-58
2024/03/03 01:44:58;;;;;;;17.50;7.68;;;;;;;;;;5068805;28;20071;-60
2024/03/03 01:47:26;;;;;;;17.10;8.10;;;;;;;;;;5073687;28;20040;-61
2024/03/03 01:49:56;;;;;;;14.05;7.20;;;;;;;;;;5063362;28;20058;-59
2024/03/03 01:52:26;;;;;;;16.45;7.78;;;;;;;;;;5073363;28;20536;-58
2024/03/03 01:54:54;;;;;;;17.40;8.30;;;;;;;;;;5056801;28;20049;-58
2024/03/03 01:57:23;;;;;;;15.02;8.15;;;;;;;;;;5079635;28;20293;-60
2024/03/03 01:59:52;;;;;;;16.30;7.85;;;;;;;;;;5077699;28;20398;-59
2024/03/03 02:02:21;;;;;;;13.63;7.00;;;;;;;;;;5073320;28;20078;-59
2024/03/03 02:04:50;;;;;;;13.02;7.43;;;;;;;;;;5083144;28;21973;-59
2024/03/03 02:07:20;;;;;;;16.85;7.47;;;;;;;;;;5073924;28;20040;-60
2024/03/03 02:09:49;;;;;;;16.63;8.10;;;;;;;;;;5067356;28;20044;-61
2024/03/03 02:12:18;;;;;;;19.90;8.85;;;;;;;;;;5078263;28;20040;-59
2024/03/03 02:14:46;;;;;;;16.02;7.50;;;;;;;;;;5069930;28;20465;-61
2024/03/03 02:17:14;;;;;;;15.98;7.70;;;;;;;;;;5066287;28;20527;-58
2024/03/03 02:19:43;;;;;;;12.32;6.70;;;;;;;;;;5068033;28;20114;-59
2024/03/03 02:22:13;;;;;;;14.85;7.93;;;;;;;;;;5068562;28;20052;-60
2024/03/03 02:24:41;;;;;;;14.73;7.68;;;;;;;;;;5061838;28;20140;-59
2024/03/03 02:27:10;;;;;;;13.98;6.85;;;;;;;;;;5058548;28;20044;-62
2024/03/03 02:29:38;;;;;;;13.38;7.30;;;;;;;;;;5064657;28;20060;-55
2024/03/03 02:32:07;;;;;;;15.93;8.02;;;;;;;;;;5070617;28;20091;-60
2024/03/03 02:34:35;;;;;;;18.63;7.55;;;;;;;;;;5065437;28;20111;-58
2024/03/03 02:37:03;;;;;;;13.45;7.45;;;;;;;;;;5066897;28;20113;-59
2024/03/03 02:39:34;;;;;;;13.73;7.22;;;;;;;;;;5070176;28;20052;-58
2024/03/03 02:42:02;;;;;;;16.42;7.93;;;;;;;;;;5071991;28;20476;-58
2024/03/03 02:44:30;;;;;;;15.25;7.47;;;;;;;;;;5074002;28;20062;-59
2024/03/03 02:46:59;;;;;;;18.25;7.88;;;;;;;;;;5072292;28;20072;-60
2024/03/03 02:49:27;;;;;;;13.15;7.90;;;;;;;;;;5073100;28;20094;-63
2024/03/03 02:51:56;;;;;;;13.70;7.90;;;;;;;;;;5072558;28;20044;-60
2024/03/03 02:54:24;;;;;;;13.70;7.18;;;;;;;;;;5069998;28;20228;-59
2024/03/03 02:56:54;;;;;;;13.77;7.70;;;;;;;;;;5072256;28;20102;-59
2024/03/03 02:59:22;;;;;;;16.52;7.55;;;;;;;;;;5071966;28;20389;-57
2024/03/03 03:01:51;;;;;;;13.75;6.68;;;;;;;;;;5071092;28;20052;-59
2024/03/03 03:04:19;;;;;;;12.35;6.60;;;;;;;;;;5067995;28;20382;-62
2024/03/03 03:06:48;;;;;;;13.43;6.97;;;;;;;;;;5064686;28;20056;-58
2024/03/03 03:09:16;;;;;;;13.77;7.03;;;;;;;;;;5076583;28;20055;-57
2024/03/03 03:11:44;;;;;;;13.00;6.30;;;;;;;;;;5069939;28;20044;-58
2024/03/03 03:14:14;;;;;;;15.05;7.35;;;;;;;;;;5076309;28;20400;-59
2024/03/03 03:16:42;;;;;;;15.35;7.57;;;;;;;;;;5073609;28;20674;-59
2024/03/03 03:19:11;;;;;;;13.23;6.97;;;;;;;;;;5073669;28;20052;-59
2024/03/03 03:21:39;;;;;;;12.95;6.97;;;;;;;;;;5070623;28;20044;-57
2024/03/03 03:24:08;;;;;;;15.05;6.68;;;;;;;;;;5077091;28;20587;-58
2024/03/03 03:26:36;;;;;;;14.07;7.03;;;;;;;;;;5070686;28;20076;-58
2024/03/03 03:29:05;;;;;;;13.30;7.22;;;;;;;;;;5069054;28;20045;-61
2024/03/03 03:31:35;;;;;;;13.02;6.30;;;;;;;;;;5068683;28;20048;-58
2024/03/03 03:34:03;;;;;;;13.00;6.55;;;;;;;;;;5072543;28;20129;-57
2024/03/03 03:36:32;;;;;;;15.57;7.53;;;;;;;;;;5067901;28;20166;-58
2024/03/03 03:39:01;;;;;;;14.00;6.78;;;;;;;;;;5064873;28;20044;-59
2024/03/03 03:41:29;;;;;;;15.00;7.47;;;;;;;;;;5063323;28;20519;-60
2024/03/03 03:43:58;;;;;;;13.88;6.80;;;;;;;;;;5075012;28;20098;-59
2024/03/03 03:46:26;;;;;;;13.88;7.15;;;;;;;;;;5077816;28;20559;-57
2024/03/03 03:48:56;;;;;;;13.43;6.60;;;;;;;;;;5074852;28;20078;-58
2024/03/03 03:51:26;;;;;;;11.80;6.20;;;;;;;;;;5072113;28;20048;-60
2024/03/03 03:53:55;;;;;;;13.43;7.43;;;;;;;;;;5070702;28;20056;-58
2024/03/03 03:56:24;;;;;;;12.07;5.72;;;;;;;;;;5071456;28;20103;-60
2024/03/03 03:58:52;;;;;;;11.85;6.55;;;;;;;;;;5072908;28;20072;-57
2024/03/03 04:01:20;;;;;;;12.35;6.30;;;;;;;;;;5068439;28;20048;-58
2024/03/03 04:03:49;;;;;;;14.98;6.72;;;;;;;;;;5069769;28;20064;-63
2024/03/03 04:06:19;;;;;;;14.63;6.43;;;;;;;;;;5070508;28;20103;-61
2024/03/03 04:08:47;;;;;;;15.15;6.60;;;;;;;;;;5074060;28;20052;-57
2024/03/03 04:11:15;;;;;;;13.38;6.38;;;;;;;;;;5070831;28;20497;-58
2024/03/03 04:13:44;;;;;;;15.50;6.57;;;;;;;;;;5070545;28;20055;-59
2024/03/03 04:16:12;;;;;;;12.35;6.65;;;;;;;;;;5070807;28;20118;-59
2024/03/03 04:18:40;;;;;;;14.05;6.22;;;;;;;;;;5065222;28;21467;-60
2024/03/03 04:21:09;;;;;;;12.80;6.13;;;;;;;;;;5069720;28;20048;-59
2024/03/03 04:23:39;;;;;;;13.63;5.93;;;;;;;;;;5073575;28;20137;-58
2024/03/03 04:26:07;;;;;;;12.07;5.80;;;;;;;;;;5067948;28;20052;-61
2024/03/03 04:28:36;;;;;;;12.45;6.25;;;;;;;;;;5072613;28;20412;-60
2024/03/03 04:31:06;;;;;;;16.35;6.85;;;;;;;;;;5068131;28;20049;-58
2024/03/03 04:33:35;;;;;;;12.15;6.10;;;;;;;;;;5073247;28;20048;-61
2024/03/03 04:36:04;;;;;;;13.57;6.20;;;;;;;;;;5057693;28;20044;-58
2024/03/03 04:38:32;;;;;;;11.90;6.07;;;;;;;;;;5068710;28;20082;-58
2024/03/03 04:41:02;;;;;;;10.70;6.03;;;;;;;;;;5062667;28;20102;-58
2024/03/03 04:43:30;;;;;;;8.85;5.70;;;;;;;;;;5074319;28;20129;-62
2024/03/03 04:45:59;;;;;;;11.90;6.40;;;;;;;;;;5067205;28;20048;-60
2024/03/03 04:48:27;;;;;;;12.43;5.72;;;;;;;;;;5070838;28;20135;-57
2024/03/03 04:50:55;;;;;;;13.27;5.97;;;;;;;;;;5067500;28;20053;-58
2024/03/03 04:53:24;;;;;;;12.88;5.60;;;;;;;;;;5073444;28;20076;-60
2024/03/03 04:55:52;;;;;;;17.45;6.53;;;;;;;;;;5064254;28;20044;-61
2024/03/03 04:58:22;;;;;;;9.20;5.82;;;;;;;;;;5068655;28;20071;-62
2024/03/03 05:00:50;;;;;;;11.52;5.95;;;;;;;;;;5063297;28;20049;-57
2024/03/03 05:03:18;;;;;;;13.15;6.65;;;;;;;;;;5073972;28;20381;-57
2024/03/03 05:05:47;;;;;;;12.25;6.63;;;;;;;;;;5061700;28;20045;-58
2024/03/03 05:08:15;;;;;;;10.13;4.95;;;;;;;;;;5075572;28;20106;-59
2024/03/03 05:10:44;;;;;;;11.15;5.57;;;;;;;;;;5068959;28;20279;-59
2024/03/03 05:13:12;;;;;;;10.50;5.25;;;;;;;;;;5071996;28;20055;-57
2024/03/03 05:15:42;;;;;;;9.70;5.93;;;;;;;;;;5071408;28;20062;-58
2024/03/03 05:18:10;;;;;;;10.77;5.80;;;;;;;;;;5066538;28;20044;-58
2024/03/03 05:20:39;;;;;;;12.95;5.53;;;;;;;;;;5050520;28;20086;-59
2024/03/03 05:23:07;;;;;;;10.27;5.72;;;;;;;;;;5045018;28;20114;-60
2024/03/03 05:25:36;;;;;;;11.55;5.63;;;;;;;;;;5048875;28;20053;-59
2024/03/03 05:28:04;;;;;;;9.80;5.35;;;;;;;;;;5051511;28;20142;-58
2024/03/03 05:30:36;;;;;;;13.35;6.15;;;;;;;;;;5055384;28;20044;-59
2024/03/03 05:33:06;;;;;;;12.00;5.90;;;;;;;;;;5040200;28;20050;-59
2024/03/03 05:35:35;;;;;;;12.38;5.50;;;;;;;;;;5047278;28;20048;-59
2024/03/03 05:38:03;;;;;;;12.40;5.85;;;;;;;;;;5042217;28;20049;-60
2024/03/03 05:40:32;;;;;;;9.20;5.05;;;;;;;;;;5034469;28;20050;-58
2024/03/03 05:43:00;;;;;;;10.07;5.43;;;;;;;;;;5046415;28;20055;-59
2024/03/03 05:45:29;;;;;;;12.05;6.15;;;;;;;;;;5042319;28;20055;-58
2024/03/03 05:47:57;;;;;;;10.77;5.85;;;;;;;;;;5043682;28;20103;-61
2024/03/03 05:50:27;;;;;;;9.25;5.57;;;;;;;;;;5040983;28;20049;-64
2024/03/03 05:52:55;;;;;;;9.10;5.70;;;;;;;;;;5041043;28;20462;-58
2024/03/03 05:55:23;;;;;;;12.38;6.57;;;;;;;;;;5040848;28;20154;-57
2024/03/03 05:57:52;;;;;;;13.00;6.13;;;;;;;;;;5042251;28;20450;-58
2024/03/03 06:00:20;;;;;;;10.75;5.35;;;;;;;;;;5037141;28;20060;-58
2024/03/03 06:02:49;;;;;;;13.52;5.82;;;;;;;;;;5030629;28;20305;-60
2024/03/03 06:05:17;;;;;;;12.18;4.95;;;;;;;;;;5040099;28;20583;-57
2024/03/03 06:07:47;;;;;;;11.00;5.15;;;;;;;;;;5039080;28;20127;-57
2024/03/03 06:10:15;;;;;;;11.70;5.60;;;;;;;;;;5035358;28;20099;-57
2024/03/03 06:12:44;;;;;;;10.85;6.30;;;;;;;;;;5039341;28;20047;-60
2024/03/03 06:15:12;;;;;;;7.93;4.78;;;;;;;;;;5036983;28;20048;-60
2024/03/03 06:17:41;;;;;;;15.88;6.43;;;;;;;;;;5042611;28;20122;-57
2024/03/03 06:20:10;;;;;;;11.00;5.60;;;;;;;;;;5039653;28;20045;-58
2024/03/03 06:22:38;;;;;;;10.20;5.32;;;;;;;;;;5037766;28;20138;-65
2024/03/03 06:25:09;;;;;;;12.98;5.63;;;;;;;;;;5039206;28;20045;-59
2024/03/03 06:27:37;;;;;;;10.88;5.05;;;;;;;;;;5041520;28;20041;-60
2024/03/03 06:30:06;;;;;;;11.00;5.85;;;;;;;;;;5044781;28;20056;-58
2024/03/03 06:32:35;;;;;;;8.25;5.20;;;;;;;;;;5050566;28;20076;-58
2024/03/03 06:35:03;;;;;;;13.27;5.90;;;;;;;;;;5044913;28;20490;-59
2024/03/03 06:37:32;;;;;;;11.60;4.90;;;;;;;;;;5035992;28;20127;-59
2024/03/03 06:40:01;;;;;;;8.65;4.88;;;;;;;;;;5048183;28;20090;-59
2024/03/03 06:42:33;;;;;;;10.93;5.72;;;;;;;;;;5044657;28;20049;-58
2024/03/03 06:45:02;;;;;;;15.15;5.80;;;;;;;;;;5054155;28;20071;-57
2024/03/03 06:47:32;;;;;;;9.98;4.93;;;;;;;;;;5044039;28;20057;-60
2024/03/03 06:50:00;;;;;;;11.98;5.93;;;;;;;;;;5058522;28;20037;-59
2024/03/03 06:52:30;;;;;;;11.15;5.47;;;;;;;;;;5065259;28;20118;-60
2024/03/03 06:54:58;;;;;;;12.63;5.80;;;;;;;;;;5067930;28;20059;-57
2024/03/03 06:57:27;;;;;;;11.48;5.50;;;;;;;;;;5059805;28;20040;-57
2024/03/03 06:59:57;;;;;;;10.60;5.38;;;;;;;;;;5051430;28;20037;-59
2024/03/03 07:02:56;;;;;;;10.95;6.10;;;;;;;;;;5040806;28;20407;-58
2024/03/03 07:05:14;;;;;;;11.02;4.85;;;;;;;;;;5041620;28;20086;-59
2024/03/03 07:07:42;;;;;;;10.18;5.72;;;;;;;;;;5044596;28;20573;-57
2024/03/03 07:10:11;;;;;;;12.43;5.50;;;;;;;;;;5062171;28;20041;-59
2024/03/03 07:12:39;;;;;;;14.43;5.82;;;;;;;;;;5061556;28;20537;-58
2024/03/03 07:15:10;;;;;;;11.43;5.10;;;;;;;;;;5061335;28;20127;-61
2024/03/03 07:17:38;;;;;;;11.18;5.05;;;;;;;;;;5061874;28;20070;-59
2024/03/03 07:20:08;;;;;;;10.30;5.60;;;;;;;;;;5071108;28;20131;-58
2024/03/03 07:22:36;;;;;;;10.52;5.53;;;;;;;;;;5070200;28;20460;-59
2024/03/03 07:25:05;;;;;;;8.32;5.00;;;;;;;;;;5063815;28;20053;-59
2024/03/03 07:27:34;;;;;;;11.80;6.03;;;;;;;;;;5063013;28;20048;-58
2024/03/03 07:30:02;;;;;;;9.52;5.80;;;;;;;;;;5068981;28;20094;-57
2024/03/03 07:32:32;;;;;;;11.07;5.35;;;;;;;;;;5069202;28;20061;-57
2024/03/03 07:35:00;;;;;;;9.55;5.00;;;;;;;;;;5070767;28;20056;-59
2024/03/03 07:37:29;;;;;;;12.68;5.95;;;;;;;;;;5065242;28;20060;-60
2024/03/03 07:39:57;;;;;;;9.32;5.07;;;;;;;;;;5066763;28;20048;-60
2024/03/03 07:42:26;;;;;;;10.13;5.10;;;;;;;;;;5069170;28;20056;-64
2024/03/03 07:44:54;;;;;;;11.02;5.18;;;;;;;;;;5068803;28;20048;-58
2024/03/03 07:47:22;;;;;;;13.32;5.40;;;;;;;;;;5070651;28;20052;-61
2024/03/03 07:49:53;;;;;;;14.13;5.18;;;;;;;;;;5068705;28;20053;-58
2024/03/03 07:52:21;;;;;;;8.57;5.13;;;;;;;;;;5068528;28;20040;-61
2024/03/03 07:54:50;;;;;;;12.15;5.05;;;;;;;;;;5070562;28;20041;-58
2024/03/03 07:57:18;;;;;;;9.45;4.95;;;;;;;;;;5060755;28;20401;-59
2024/03/03 07:59:47;;;;;;;12.65;4.18;;;;;;;;;;5069385;28;20052;-60
2024/03/03 08:02:16;;;;;;;7.40;4.50;;;;;;;;;;5069594;28;20294;-59
2024/03/03 08:04:44;;;;;;;6.53;3.85;;;;;;;;;;5068998;28;20048;-59
2024/03/03 08:07:14;;;;;;;6.55;3.72;;;;;;;;;;5065425;28;20646;-58
2024/03/03 08:09:42;;;;;;;8.93;4.50;;;;;;;;;;5066706;28;20068;-59
2024/03/03 08:12:11;;;;;;;7.75;4.20;;;;;;;;;;5066319;28;20048;-58
2024/03/03 08:14:39;;;;;;;6.32;3.63;;;;;;;;;;5069796;28;20458;-59
2024/03/03 08:17:08;;;;;;;6.35;3.40;;;;;;;;;;5068180;28;20471;-61
2024/03/03 08:19:37;;;;;;;8.20;3.35;;;;;;;;;;5069897;28;20347;-58
2024/03/03 08:22:05;;;;;;;7.57;4.28;;;;;;;;;;5068966;28;20052;-58
2024/03/03 08:24:35;;;;;;;6.53;3.45;;;;;;;;;;5065510;28;20131;-60
2024/03/03 08:27:04;;;;;;;7.43;3.97;;;;;;;;;;5066283;28;20049;-61
2024/03/03 08:29:32;;;;;;;8.13;4.07;;;;;;;;;;5066169;28;20041;-59
2024/03/03 08:32:01;;;;;;;6.95;4.18;;;;;;;;;;5065887;28;20425;-59
2024/03/03 08:34:34;;;;;;;5.35;3.40;;;;;;;;;;5066065;28;20174;-58
2024/03/03 08:37:02;;;;;;;4.57;3.00;;;;;;;;;;5068187;28;20052;-59
2024/03/03 08:39:31;;;;;;;6.25;3.45;;;;;;;;;;5071476;28;20155;-59
2024/03/03 08:42:01;;;;;;;7.15;3.65;;;;;;;;;;5069027;28;20049;-60
2024/03/03 08:44:31;;;;;;;5.25;2.83;;;;;;;;;;5067689;28;20049;-59
2024/03/03 08:47:00;;;;;;;5.32;3.15;;;;;;;;;;5070067;28;20052;-60
2024/03/03 08:49:28;;;;;;;5.68;3.08;;;;;;;;;;5059595;28;20106;-58
2024/03/03 08:51:57;;;;;;;5.70;3.10;;;;;;;;;;5043100;28;20044;-63
2024/03/03 08:54:26;;;;;;;5.65;3.42;;;;;;;;;;5042177;28;20126;-60
2024/03/03 08:56:54;;;;;;;6.28;3.15;;;;;;;;;;5045980;28;20049;-59
2024/03/03 08:59:24;;;;;;;6.15;3.00;;;;;;;;;;5039560;28;20053;-58
2024/03/03 09:01:53;;;;;;;5.18;3.03;;;;;;;;;;5045024;28;20052;-59
2024/03/03 09:04:21;;;;;;;3.55;2.60;;;;;;;;;;5047671;28;20458;-59
2024/03/03 09:06:50;;;;;;;4.75;2.75;;;;;;;;;;5048368;28;20144;-61
2024/03/03 09:09:18;;;;;;;4.38;2.45;;;;;;;;;;5044569;28;20530;-59
2024/03/03 09:11:48;;;;;;;5.00;2.72;;;;;;;;;;5048991;28;20049;-59
2024/03/03 09:14:16;;;;;;;5.80;2.63;;;;;;;;;;5045900;28;20100;-60
2024/03/03 09:16:46;;;;;;;3.33;2.15;;;;;;;;;;5048550;28;20056;-61
2024/03/03 09:19:14;;;;;;;3.83;2.53;;;;;;;;;;5047147;28;20098;-59
2024/03/03 09:21:43;;;;;;;3.95;2.42;;;;;;;;;;5043143;28;20485;-59
2024/03/03 09:24:11;;;;;;;3.05;2.28;;;;;;;;;;5037379;28;20059;-65
2024/03/03 09:26:40;;;;;;;2.80;1.88;;;;;;;;;;5042310;28;20052;-62
2024/03/03 09:29:09;;;;;;;4.10;2.47;;;;;;;;;;5042906;28;20395;-62
2024/03/03 09:31:38;;;;;;;3.58;2.08;;;;;;;;;;5047246;28;20102;-60
2024/03/03 09:34:08;;;;;;;3.40;2.13;;;;;;;;;;5047084;28;20578;-58
2024/03/03 09:36:37;;;;;;;2.95;2.20;;;;;;;;;;5045559;28;20055;-59
2024/03/03 09:39:05;;;;;;;4.13;2.35;;;;;;;;;;5041707;28;20461;-60
2024/03/03 09:41:34;;;;;;;3.50;2.28;;;;;;;;;;5040208;28;20069;-59
2024/03/03 09:44:07;;;;;;;4.07;2.30;;;;;;;;;;5038858;28;20048;-61
2024/03/03 09:46:37;;;;;;;6.25;2.90;;;;;;;;;;5046648;28;20049;-58
2024/03/03 09:49:07;;;;;;;6.22;3.05;;;;;;;;;;5044584;28;20041;-60
2024/03/03 09:51:38;;;;;;;4.45;2.40;;;;;;;;;;5051036;28;20571;-60
2024/03/03 09:54:08;;;;;;;4.07;2.65;;;;;;;;;;5050725;28;20037;-60
2024/03/03 09:56:38;;;;;;;3.88;2.90;;;;;;;;;;5046419;28;20060;-60
2024/03/03 09:59:08;;;;;;;4.32;3.00;;;;;;;;;;5045740;28;20045;-58
2024/03/03 10:01:39;;;;;;;4.63;2.60;;;;;;;;;;5068458;28;20504;-58
2024/03/03 10:04:08;;;;;;;4.03;2.42;;;;;;;;;;5068226;28;20048;-58
2024/03/03 10:06:39;;;;;;;7.65;2.70;;;;;;;;;;5067994;28;20049;-60
2024/03/03 10:09:12;;;;;;;3.28;2.38;;;;;;;;;;5062756;28;20590;-60
2024/03/03 10:11:42;;;;;;;4.03;2.47;;;;;;;;;;5066643;28;20048;-58
2024/03/03 10:14:11;;;;;;;3.22;2.22;;;;;;;;;;5062131;28;20044;-59
2024/03/03 10:16:40;;;;;;;3.00;2.40;;;;;;;;;;5065747;28;20109;-59
2024/03/03 10:19:09;;;;;;;5.13;2.60;;;;;;;;;;5063833;28;20252;-62
2024/03/03 10:21:39;;;;;;;4.95;2.10;;;;;;;;;;5067550;28;20068;-60
2024/03/03 10:24:20;;;;;;;3.42;2.20;;;;;;;;;;5063889;28;20041;-58
2024/03/03 10:26:50;;;;;;;5.43;1.90;;;;;;;;;;5067759;28;20080;-62
2024/03/03 10:29:19;;;;;;;1.80;1.40;;;;;;;;;;5061669;28;20045;-61
2024/03/03 10:31:47;;;;;;;2.85;1.38;;;;;;;;;;5068266;28;20477;-61
2024/03/03 10:34:16;;;;;;;2.63;1.08;;;;;;;;;;5063785;28;20470;-58
2024/03/03 10:36:46;;;;;;;2.05;1.13;;;;;;;;;;5065138;28;20053;-59
2024/03/03 10:39:16;;;;;;;1.23;0.90;;;;;;;;;;5060458;28;20059;-59
2024/03/03 10:41:45;;;;;;;3.00;0.90;;;;;;;;;;5064243;28;20049;-60
2024/03/03 10:44:13;;;;;;;1.65;1.00;;;;;;;;;;5064748;28;20060;-58
2024/03/03 10:46:41;;;;;;;1.80;0.70;;;;;;;;;;5065078;28;20113;-58
2024/03/03 10:49:13;;;;;;;4.10;0.95;;;;;;;;;;5062715;28;20056;-58
2024/03/03 10:51:41;;;;;;;5.18;1.20;;;;;;;;;;5060547;28;20052;-66
2024/03/03 10:54:11;;;;;;;1.10;0.85;;;;;;;;;;5065430;28;20131;-61
2024/03/03 10:56:40;;;;;;;2.13;0.90;;;;;;;;;;5068909;28;20059;-60
2024/03/03 10:59:10;;;;;;;2.88;1.08;;;;;;;;;;5063296;28;20049;-59
2024/03/03 11:01:39;;;;;;;1.33;0.85;;;;;;;;;;5068410;28;20339;-58
2024/03/03 11:04:08;;;;;;;1.45;1.05;;;;;;;;;;5068168;28;20087;-59
2024/03/03 11:06:38;;;;;;;3.83;1.15;;;;;;;;;;5067139;28;20169;-58
2024/03/03 11:09:09;;;;;;;1.42;1.00;;;;;;;;;;5069208;28;20090;-59
2024/03/03 11:11:39;;;;;;;2.90;0.90;;;;;;;;;;5067745;28;20059;-59
2024/03/03 11:14:11;;;;;;;0.93;0.80;;;;;;;;;;5065586;28;20058;-58
2024/03/03 11:16:40;;;;;;;1.98;1.05;;;;;;;;;;5064979;28;20052;-60
2024/03/03 11:19:11;;;;;;;2.08;1.10;;;;;;;;;;5063993;28;20053;-61
2024/03/03 11:21:40;;;;;;;4.32;1.30;;;;;;;;;;5069766;28;20051;-59
2024/03/03 11:24:10;;;;;;;1.95;0.80;;;;;;;;;;5071226;28;20047;-59
2024/03/03 11:26:44;;;;;;;0.77;0.70;;;;;;;;;;5070216;28;20041;-59
2024/03/03 11:29:13;;;;;;;0.60;0.60;;;;;;;;;;5072090;28;20057;-59
2024/03/03 11:31:42;;;;;;;3.10;0.70;;;;;;;;;;5077918;28;20225;-62
2024/03/03 11:34:13;;;;;;;1.00;0.82;;;;;;;;;;5069265;28;20052;-60
2024/03/03 11:36:42;;;;;;;2.55;0.52;;;;;;;;;;5065291;28;20059;-61
2024/03/03 11:39:11;;;;;;;1.23;0.60;;;;;;;;;;5072629;28;20130;-60
2024/03/03 11:41:41;;;;;;;0.60;0.60;;;;;;;;;;5068507;28;20127;-61
2024/03/03 11:44:24;;;;;;;0.70;0.60;;;;;;;;;;5068475;28;20320;-60
2024/03/03 11:46:54;;;;;;;1.00;0.60;;;;;;;;;;5067223;28;20054;-61
2024/03/03 11:49:24;;;;;;;2.13;0.52;;;;;;;;;;5070266;28;20053;-60
2024/03/03 11:51:53;;;;;;;0.70;0.70;;;;;;;;;;5069319;28;20143;-60
2024/03/03 11:54:31;;;;;;;0.52;0.50;;;;;;;;;;5071674;28;20071;-60
2024/03/03 11:57:00;;;;;;;0.70;0.60;;;;;;;;;;5079610;28;20526;-58
2024/03/03 11:59:32;;;;;;;0.60;0.60;;;;;;;;;;5072754;28;20052;-58
2024/03/03 12:02:02;;;;;;;1.17;0.95;;;;;;;;;;5067205;28;20052;-61
2024/03/03 12:04:31;;;;;;;1.92;0.80;;;;;;;;;;5083167;28;20492;-60
2024/03/03 12:07:00;;;;;;;0.63;0.60;;;;;;;;;;5070788;28;20059;-61
2024/03/03 12:09:29;;;;;;;2.30;0.70;;;;;;;;;;5074751;28;20079;-58
2024/03/03 12:11:59;;;;;;;0.70;0.65;;;;;;;;;;5066618;28;20087;-59
2024/03/03 12:14:27;;;;;;;0.88;0.77;;;;;;;;;;5067175;28;20041;-63
2024/03/03 12:16:56;;;;;;;2.30;0.70;;;;;;;;;;5061955;28;20508;-60
2024/03/03 12:19:25;;;;;;;0.82;0.60;;;;;;;;;;5060703;28;20061;-60
2024/03/03 12:21:54;;;;;;;2.38;0.68;;;;;;;;;;5045658;28;21342;-58
2024/03/03 12:24:22;;;;;;;0.93;0.60;;;;;;;;;;5046291;28;20056;-63
2024/03/03 12:26:52;;;;;;;1.35;0.70;;;;;;;;;;5046759;28;20130;-62
2024/03/03 12:29:20;;;;;;;2.38;0.70;;;;;;;;;;5044125;28;20529;-62
2024/03/03 12:31:50;;;;;;;2.10;0.60;;;;;;;;;;5055882;28;20040;-58
2024/03/03 12:34:18;;;;;;;0.90;0.80;;;;;;;;;;5044955;28;20432;-58
2024/03/03 12:36:50;;;;;;;2.47;0.80;;;;;;;;;;5044861;28;20107;-58
2024/03/03 12:39:18;;;;;;;0.70;0.70;;;;;;;;;;5048306;28;20053;-59
2024/03/03 12:41:47;;;;;;;2.30;0.60;;;;;;;;;;5063732;28;20052;-58
2024/03/03 12:44:15;;;;;;;0.95;0.65;;;;;;;;;;5064284;28;20045;-61
2024/03/03 12:46:44;;;;;;;0.98;0.70;;;;;;;;;;5063827;28;20074;-58
2024/03/03 12:49:12;;;;;;;2.38;0.60;;;;;;;;;;5066178;28;20048;-60
2024/03/03 12:51:41;;;;;;;2.90;1.60;;;;;;;;;;5065055;28;20055;-59
2024/03/03 12:54:11;;;;;;;2.40;1.45;;;;;;;;;;5062877;28;20044;-62
2024/03/03 12:56:39;;;;;;;3.53;1.63;;;;;;;;;;5063106;28;20045;-62
2024/03/03 12:59:08;;;;;;;1.35;0.80;;;;;;;;;;5064187;28;20060;-58
2024/03/03 13:01:36;;;;;;;0.93;0.70;;;;;;;;;;5065029;28;20091;-61
2024/03/03 13:04:05;;;;;;;1.35;0.70;;;;;;;;;;5067048;28;20495;-59
2024/03/03 13:06:33;;;;;;;3.20;0.73;;;;;;;;;;5068076;28;20403;-62
2024/03/03 13:09:02;;;;;;;0.50;0.50;;;;;;;;;;5065541;28;20063;-62
2024/03/03 13:11:32;;;;;;;0.70;0.70;;;;;;;;;;5067248;28;20545;-58
2024/03/03 13:14:00;;;;;;;2.35;0.65;;;;;;;;;;5061363;28;20045;-62
2024/03/03 13:16:29;;;;;;;1.00;0.70;;;;;;;;;;5064730;28;20137;-71
2024/03/03 13:18:58;;;;;;;1.17;0.70;;;;;;;;;;5063791;28;20506;-59
2024/03/03 13:21:27;;;;;;;1.20;0.70;;;;;;;;;;5060775;28;20044;-60
2024/03/03 13:23:56;;;;;;;1.80;0.90;;;;;;;;;;5061954;28;20113;-65
2024/03/03 13:26:24;;;;;;;0.73;0.68;;;;;;;;;;5062916;28;20425;-59
2024/03/03 13:28:54;;;;;;;1.02;0.80;;;;;;;;;;5062995;28;20102;-59
2024/03/03 13:31:22;;;;;;;0.95;0.70;;;;;;;;;;5066286;28;20532;-62
2024/03/03 13:33:51;;;;;;;0.93;0.82;;;;;;;;;;5066332;28;20074;-59
2024/03/03 13:36:19;;;;;;;2.30;0.80;;;;;;;;;;5060121;28;20118;-59
2024/03/03 13:38:48;;;;;;;1.45;0.90;;;;;;;;;;5067979;28;20044;-57
2024/03/03 13:41:16;;;;;;;1.05;0.80;;;;;;;;;;5065963;28;20444;-59
2024/03/03 13:43:45;;;;;;;0.77;0.65;;;;;;;;;;5065110;28;20052;-61
2024/03/03 13:46:14;;;;;;;1.70;0.52;;;;;;;;;;5063468;28;20106;-64
2024/03/03 13:48:43;;;;;;;0.93;0.40;;;;;;;;;;5063022;28;21667;-64
2024/03/03 13:51:11;;;;;;;1.13;0.50;;;;;;;;;;5068901;28;20474;-61
2024/03/03 13:53:40;;;;;;;1.88;0.70;;;;;;;;;;5070011;28;20052;-62
2024/03/03 13:56:08;;;;;;;0.52;0.50;;;;;;;;;;5069743;28;20102;-62
2024/03/03 13:58:36;;;;;;;0.50;0.50;;;;;;;;;;5065052;28;20564;-63
2024/03/03 14:01:08;;;;;;;0.40;0.40;;;;;;;;;;5068262;28;20547;-61
2024/03/03 14:03:40;;;;;;;0.75;0.50;;;;;;;;;;5064841;28;20044;-61
2024/03/03 14:06:08;;;;;;;0.50;0.50;;;;;;;;;;5068622;28;20053;-61
2024/03/03 14:08:38;;;;;;;3.95;0.60;;;;;;;;;;5067425;28;20063;-62
2024/03/03 14:11:06;;;;;;;1.10;0.60;;;;;;;;;;5067992;28;20408;-66
2024/03/03 14:13:35;;;;;;;0.60;0.60;;;;;;;;;;5066023;28;20132;-66
2024/03/03 14:16:03;;;;;;;1.35;0.55;;;;;;;;;;5067524;28;20076;-61
2024/03/03 14:18:32;;;;;;;1.30;0.40;;;;;;;;;;5065786;28;20048;-62
2024/03/03 14:21:04;;;;;;;0.50;0.50;;;;;;;;;;5060286;28;20099;-63
2024/03/03 14:23:32;;;;;;;0.57;0.50;;;;;;;;;;5068289;28;20825;-67
2024/03/03 14:26:01;;;;;;;0.47;0.47;;;;;;;;;;5071532;28;20063;-61
2024/03/03 14:28:29;;;;;;;0.50;0.50;;;;;;;;;;5071594;28;20072;-62
2024/03/03 14:30:58;;;;;;;0.40;0.40;;;;;;;;;;5070803;28;20052;-61
2024/03/03 14:33:26;;;;;;;0.55;0.50;;;;;;;;;;5065873;28;20505;-61
2024/03/03 14:35:55;;;;;;;2.92;0.50;;;;;;;;;;5070508;28;20045;-66
2024/03/03 14:38:24;;;;;;;1.55;0.43;;;;;;;;;;5071747;28;20066;-63
2024/03/03 14:40:53;;;;;;;0.70;0.40;;;;;;;;;;5077027;28;20102;-61
2024/03/03 14:43:21;;;;;;;2.05;0.50;;;;;;;;;;5075663;28;20044;-60
2024/03/03 14:45:50;;;;;;;0.77;0.40;;;;;;;;;;5073313;28;20044;-63